createdAt,value
2018-09-18T00:02:20.408Z,99.90
2018-09-18T00:04:48.496Z,99.90
2018-09-18T00:07:17.214Z,99.90
2018-09-18T00:09:45.269Z,99.90
2018-09-18T00:12:13.352Z,99.90
2018-09-18T00:14:41.468Z,99.90
2018-09-18T00:17:09.533Z,99.90
2018-09-18T00:19:37.600Z,99.90
2018-09-18T00:22:05.725Z,99.90
2018-09-18T00:24:33.842Z,99.90
2018-09-18T00:27:01.916Z,99.90
2018-09-18T00:29:29.988Z,99.90
2018-09-18T00:31:58.036Z,99.90
2018-09-18T00:34:26.109Z,99.90
2018-09-18T00:36:54.162Z,99.90
2018-09-18T00:39:22.236Z,99.90
2018-09-18T00:41:50.316Z,99.90
2018-09-18T00:44:18.395Z,99.90
2018-09-18T00:46:46.446Z,99.90
2018-09-18T00:49:14.535Z,99.90
2018-09-18T00:51:42.631Z,99.90
2018-09-18T00:54:10.683Z,99.90
2018-09-18T00:56:38.758Z,99.90
2018-09-18T00:59:06.849Z,99.90
2018-09-18T01:01:34.926Z,99.90
2018-09-18T01:04:02.976Z,99.90
2018-09-18T01:06:31.027Z,99.90
2018-09-18T01:08:59.098Z,99.90
2018-09-18T01:11:27.175Z,99.90
2018-09-18T01:13:55.269Z,99.90
2018-09-18T01:16:23.341Z,99.90
2018-09-18T01:18:51.442Z,99.90
2018-09-18T01:21:19.499Z,99.90
2018-09-18T01:23:47.562Z,99.90
2018-09-18T01:26:15.642Z,99.90
2018-09-18T01:28:43.706Z,99.90
2018-09-18T01:31:11.751Z,99.90
2018-09-18T01:33:39.808Z,99.90
2018-09-18T01:36:07.854Z,99.90
2018-09-18T01:38:35.941Z,99.90
2018-09-18T01:41:04.028Z,99.90
2018-09-18T01:43:32.078Z,99.90
2018-09-18T01:46:00.127Z,99.90
2018-09-18T01:48:28.206Z,99.90
2018-09-18T01:50:56.891Z,99.90
2018-09-18T01:53:24.958Z,99.90
2018-09-18T01:55:53.016Z,99.90
2018-09-18T01:58:21.077Z,99.90
2018-09-18T02:00:49.161Z,99.90
2018-09-18T02:03:17.235Z,99.90
2018-09-18T02:05:45.282Z,99.90
2018-09-18T02:08:14.326Z,99.90
2018-09-18T02:10:42.415Z,99.90
2018-09-18T02:13:10.471Z,99.90
2018-09-18T02:15:38.527Z,99.90
2018-09-18T02:18:06.582Z,99.90
2018-09-18T02:20:34.930Z,99.90
2018-09-18T02:23:02.976Z,99.90
2018-09-18T02:25:31.095Z,99.90
2018-09-18T02:27:59.155Z,99.90
2018-09-18T02:30:27.234Z,99.90
2018-09-18T02:32:55.306Z,99.90
2018-09-18T02:35:23.362Z,99.90
2018-09-18T02:37:51.433Z,99.90
2018-09-18T02:40:19.507Z,99.90
2018-09-18T02:42:47.588Z,99.90
2018-09-18T02:45:15.663Z,99.90
2018-09-18T02:47:43.738Z,99.90
2018-09-18T02:50:11.846Z,99.90
2018-09-18T02:52:39.899Z,99.90
2018-09-18T02:55:07.969Z,99.90
2018-09-18T02:57:36.031Z,99.90
2018-09-18T03:00:04.235Z,99.90
2018-09-18T03:02:32.297Z,99.90
2018-09-18T03:05:00.401Z,99.90
2018-09-18T03:07:28.459Z,99.90
2018-09-18T03:09:56.523Z,99.90
2018-09-18T03:12:24.589Z,99.90
2018-09-18T03:14:52.672Z,99.90
2018-09-18T03:17:20.739Z,99.90
2018-09-18T03:19:48.805Z,99.90
2018-09-18T03:22:16.882Z,99.90
2018-09-18T03:24:44.980Z,99.90
2018-09-18T03:27:13.084Z,99.90
2018-09-18T03:29:41.122Z,99.90
2018-09-18T03:32:09.159Z,99.90
2018-09-18T03:34:37.221Z,99.90
2018-09-18T03:37:05.278Z,99.90
2018-09-18T03:39:33.339Z,99.90
2018-09-18T03:42:01.403Z,99.90
2018-09-18T03:44:29.503Z,99.90
2018-09-18T03:46:57.627Z,99.90
2018-09-18T03:49:25.679Z,99.90
2018-09-18T03:51:53.738Z,99.90
2018-09-18T03:54:21.792Z,99.90
2018-09-18T03:56:49.867Z,99.90
2018-09-18T03:59:17.930Z,99.90
2018-09-18T04:01:45.998Z,99.90
2018-09-18T04:04:14.074Z,99.90
2018-09-18T04:06:42.138Z,99.90
2018-09-18T04:09:11.380Z,99.90
2018-09-18T04:11:39.670Z,99.90
2018-09-18T04:14:07.730Z,99.90
2018-09-18T04:16:35.804Z,99.90
2018-09-18T04:19:03.864Z,99.90
2018-09-18T04:21:40.190Z,99.90
2018-09-18T04:24:09.181Z,99.90
2018-09-18T04:26:38.223Z,99.90
2018-09-18T04:29:06.698Z,99.90
2018-09-18T04:31:34.780Z,99.90
2018-09-18T04:34:02.879Z,99.90
2018-09-18T04:36:30.934Z,99.90
2018-09-18T04:38:59.005Z,99.90
2018-09-18T04:41:27.887Z,99.90
2018-09-18T04:43:55.960Z,99.90
2018-09-18T04:46:24.049Z,99.90
2018-09-18T04:48:52.212Z,99.90
2018-09-18T04:51:20.303Z,99.90
2018-09-18T04:53:48.361Z,99.90
2018-09-18T04:56:16.442Z,99.90
2018-09-18T04:58:44.491Z,99.90
2018-09-18T05:01:12.555Z,99.90
2018-09-18T05:03:40.629Z,99.90
2018-09-18T05:06:08.700Z,99.90
2018-09-18T05:08:36.751Z,99.90
2018-09-18T05:11:04.822Z,99.90
2018-09-18T05:13:32.875Z,99.90
2018-09-18T05:16:00.939Z,99.90
2018-09-18T05:18:29.042Z,99.90
2018-09-18T05:20:57.149Z,99.90
2018-09-18T05:23:25.226Z,99.90
2018-09-18T05:25:53.305Z,99.90
2018-09-18T05:28:21.357Z,99.90
2018-09-18T05:30:49.459Z,99.90
2018-09-18T05:33:17.502Z,99.90
2018-09-18T05:35:45.579Z,99.90
2018-09-18T05:38:14.007Z,99.90
2018-09-18T05:40:42.464Z,99.90
2018-09-18T05:43:10.537Z,99.90
2018-09-18T05:45:38.596Z,99.90
2018-09-18T05:48:06.747Z,99.90
2018-09-18T05:50:35.426Z,99.90
2018-09-18T05:53:03.507Z,99.90
2018-09-18T05:55:31.565Z,99.90
2018-09-18T05:57:59.653Z,99.90
2018-09-18T06:00:27.795Z,99.90
2018-09-18T06:02:55.874Z,99.90
2018-09-18T06:05:23.970Z,99.90
2018-09-18T06:07:52.110Z,99.90
2018-09-18T06:10:20.199Z,99.90
2018-09-18T06:12:48.366Z,99.90
2018-09-18T06:15:16.659Z,99.90
2018-09-18T06:17:44.809Z,99.90
2018-09-18T06:20:13.002Z,99.90
2018-09-18T06:22:41.219Z,99.90
2018-09-18T06:25:09.370Z,99.90
2018-09-18T06:27:37.453Z,99.90
2018-09-18T06:30:05.599Z,99.90
2018-09-18T06:32:33.781Z,99.90
2018-09-18T06:35:01.965Z,99.90
2018-09-18T06:37:30.089Z,99.90
2018-09-18T06:39:58.279Z,99.90
2018-09-18T06:42:26.547Z,99.90
2018-09-18T06:44:54.793Z,99.90
2018-09-18T06:47:22.945Z,99.90
2018-09-18T06:49:51.228Z,99.90
2018-09-18T06:52:19.536Z,99.90
2018-09-18T06:54:48.221Z,99.90
2018-09-18T06:57:16.641Z,99.90
2018-09-18T06:59:46.216Z,99.90
2018-09-18T07:02:14.469Z,99.90
2018-09-18T07:04:42.537Z,99.90
2018-09-18T07:07:10.659Z,99.90
2018-09-18T07:09:38.698Z,99.90
2018-09-18T07:12:07.624Z,99.90
2018-09-18T07:14:35.785Z,99.90
2018-09-18T07:17:03.895Z,99.90
2018-09-18T07:19:31.985Z,99.90
2018-09-18T07:22:00.070Z,99.90
2018-09-18T07:24:28.168Z,99.30
2018-09-18T07:26:56.254Z,99.90
2018-09-18T07:29:24.334Z,98.30
2018-09-18T07:31:53.195Z,97.60
2018-09-18T07:34:21.281Z,96.10
2018-09-18T07:36:49.359Z,97.90
2018-09-18T07:39:17.861Z,96.80
2018-09-18T07:41:46.068Z,97.40
2018-09-18T07:44:14.263Z,95.20
2018-09-18T07:46:43.375Z,94.20
2018-09-18T07:49:11.672Z,93.10
2018-09-18T07:51:40.859Z,93.10
2018-09-18T07:54:09.182Z,93.10
2018-09-18T07:56:37.824Z,92.80
2018-09-18T07:59:06.114Z,91.60
2018-09-18T08:01:34.404Z,93.50
2018-09-18T08:04:03.633Z,91.50
2018-09-18T08:06:31.966Z,90.40
2018-09-18T08:09:00.536Z,86.40
2018-09-18T08:11:29.638Z,86.40
2018-09-18T08:13:58.161Z,87.20
2018-09-18T08:16:26.786Z,86.80
2018-09-18T08:18:56.085Z,86.10
2018-09-18T08:21:24.346Z,86.10
2018-09-18T08:23:53.445Z,77.50
2018-09-18T08:26:21.677Z,79.20
2018-09-18T08:28:50.169Z,76.00
2018-09-18T08:31:18.508Z,76.90
2018-09-18T08:33:46.845Z,74.10
2018-09-18T08:36:14.997Z,74.40
2018-09-18T08:38:43.184Z,74.00
2018-09-18T08:41:11.619Z,69.90
2018-09-18T08:43:39.842Z,69.10
2018-09-18T08:46:08.243Z,70.50
2018-09-18T08:48:36.365Z,66.30
2018-09-18T08:51:04.619Z,63.00
2018-09-18T08:53:32.882Z,60.20
2018-09-18T08:56:01.367Z,62.00
2018-09-18T08:58:29.636Z,62.20
2018-09-18T09:00:57.947Z,60.70
2018-09-18T09:03:26.155Z,64.60
2018-09-18T09:05:54.604Z,61.70
2018-09-18T09:08:23.148Z,61.20
2018-09-18T09:10:51.335Z,65.30
2018-09-18T09:13:19.783Z,61.40
2018-09-18T09:15:47.918Z,62.50
2018-09-18T09:18:16.128Z,61.60
2018-09-18T09:20:44.354Z,62.50
2018-09-18T09:23:13.218Z,60.70
2018-09-18T09:25:41.576Z,59.70
2018-09-18T09:28:10.169Z,59.50
2018-09-18T09:30:38.543Z,60.40
2018-09-18T09:33:06.863Z,60.00
2018-09-18T09:35:35.213Z,58.10
2018-09-18T09:38:03.486Z,57.60
2018-09-18T09:40:31.744Z,56.50
2018-09-18T09:42:59.875Z,55.70
2018-09-18T09:45:28.146Z,56.70
2018-09-18T09:47:56.585Z,56.00
2018-09-18T09:50:25.033Z,58.00
2018-09-18T09:52:53.180Z,54.50
2018-09-18T09:55:21.347Z,55.80
2018-09-18T09:57:49.637Z,55.40
2018-09-18T10:00:23.507Z,52.60
2018-09-18T10:02:51.974Z,52.30
2018-09-18T10:05:20.292Z,57.00
2018-09-18T10:07:48.883Z,54.00
2018-09-18T10:10:17.225Z,52.70
2018-09-18T10:12:45.379Z,51.30
2018-09-18T10:15:13.615Z,51.30
2018-09-18T10:17:41.958Z,53.80
2018-09-18T10:20:10.387Z,50.30
